createdAt,value
2018-10-21T00:01:07.258Z,65.30
2018-10-21T00:03:36.555Z,65.34
2018-10-21T00:06:05.932Z,64.46
2018-10-21T00:08:35.159Z,64.23
2018-10-21T00:11:04.798Z,64.45
2018-10-21T00:13:34.053Z,64.78
2018-10-21T00:16:03.479Z,64.49
2018-10-21T00:18:32.881Z,65.29
2018-10-21T00:21:02.223Z,65.25
2018-10-21T00:23:31.584Z,64.07
2018-10-21T00:26:00.858Z,64.20
2018-10-21T00:28:30.511Z,64.63
2018-10-21T00:30:59.727Z,64.31
2018-10-21T00:33:29.086Z,64.62
2018-10-21T00:35:58.331Z,65.66
2018-10-21T00:38:27.621Z,65.63
2018-10-21T00:40:57.089Z,65.38
2018-10-21T00:43:26.489Z,65.39
2018-10-21T00:45:55.727Z,65.93
2018-10-21T00:48:25.091Z,65.61
2018-10-21T00:50:54.498Z,66.05
2018-10-21T00:53:23.971Z,65.96
2018-10-21T00:55:53.460Z,66.19
2018-10-21T00:58:22.897Z,66.19
2018-10-21T01:00:52.405Z,66.23
2018-10-21T01:03:21.910Z,66.45
2018-10-21T01:05:51.307Z,66.23
2018-10-21T01:08:20.543Z,65.92
2018-10-21T01:10:50.007Z,66.07
2018-10-21T01:13:19.414Z,67.62
2018-10-21T01:15:48.602Z,67.11
2018-10-21T01:18:17.846Z,68.28
2018-10-21T01:20:47.358Z,68.22
2018-10-21T01:23:16.579Z,67.39
2018-10-21T01:25:46.013Z,67.63
2018-10-21T01:28:15.270Z,67.03
2018-10-21T01:30:44.609Z,66.93
2018-10-21T01:33:14.592Z,67.13
2018-10-21T01:35:45.462Z,67.48
2018-10-21T01:38:14.875Z,67.41
2018-10-21T01:40:45.290Z,67.30
2018-10-21T01:43:16.283Z,67.29
2018-10-21T01:45:45.835Z,67.08
2018-10-21T01:48:17.797Z,67.88
2018-10-21T01:50:47.302Z,67.93
2018-10-21T01:53:17.729Z,67.51
2018-10-21T01:55:46.935Z,67.37
2018-10-21T01:58:16.324Z,67.80
2018-10-21T02:00:45.726Z,68.23
2018-10-21T02:03:15.457Z,68.11
2018-10-21T02:05:45.597Z,69.30
2018-10-21T02:08:15.057Z,68.96
2018-10-21T02:10:44.339Z,69.04
2018-10-21T02:13:13.759Z,69.03
2018-10-21T02:15:43.205Z,68.86
2018-10-21T02:18:12.668Z,69.54
2018-10-21T02:20:42.074Z,67.96
2018-10-21T02:23:11.357Z,67.45
2018-10-21T02:25:40.625Z,68.34
2018-10-21T02:28:10.051Z,69.14
2018-10-21T02:30:39.470Z,69.53
2018-10-21T02:33:08.780Z,69.70
2018-10-21T02:35:38.173Z,69.14
2018-10-21T02:38:07.675Z,68.49
2018-10-21T02:41:45.420Z,68.52
2018-10-21T02:44:16.834Z,68.20
2018-10-21T02:46:46.960Z,68.94
2018-10-21T02:49:16.915Z,68.86
2018-10-21T02:51:51.542Z,68.63
2018-10-21T02:54:24.040Z,68.05
2018-10-21T02:56:53.457Z,67.75
2018-10-21T02:59:23.363Z,67.66
2018-10-21T03:01:52.684Z,67.78
2018-10-21T03:04:22.283Z,67.90
2018-10-21T03:06:51.990Z,68.03
2018-10-21T03:09:21.308Z,68.14
2018-10-21T03:11:50.691Z,68.48
2018-10-21T03:14:19.929Z,67.91
2018-10-21T03:16:49.243Z,67.85
2018-10-21T03:19:18.593Z,67.42
2018-10-21T03:21:47.826Z,67.52
2018-10-21T03:24:17.372Z,67.56
2018-10-21T03:26:47.679Z,67.62
2018-10-21T03:29:16.943Z,68.15
2018-10-21T03:31:46.153Z,68.14
2018-10-21T03:34:15.626Z,68.10
2018-10-21T03:36:45.021Z,68.21
2018-10-21T03:39:14.417Z,68.38
2018-10-21T03:41:43.587Z,68.54
2018-10-21T03:44:12.927Z,68.58
2018-10-21T03:46:42.423Z,68.30
2018-10-21T03:49:11.922Z,67.94
2018-10-21T03:51:41.103Z,67.66
2018-10-21T03:54:10.519Z,67.39
2018-10-21T03:56:39.719Z,67.40
2018-10-21T03:59:09.116Z,67.53
2018-10-21T04:01:38.519Z,68.10
2018-10-21T04:04:08.077Z,67.49
2018-10-21T04:06:37.305Z,67.39
2018-10-21T04:09:08.110Z,66.96
2018-10-21T04:11:37.456Z,66.83
2018-10-21T04:14:06.861Z,67.41
2018-10-21T04:16:36.122Z,66.96
2018-10-21T04:19:05.628Z,66.56
2018-10-21T04:21:34.962Z,66.39
2018-10-21T04:24:04.230Z,66.24
2018-10-21T04:26:33.457Z,66.79
2018-10-21T04:29:02.859Z,66.65
2018-10-21T04:31:32.160Z,66.86
2018-10-21T04:34:01.509Z,66.82
2018-10-21T04:36:32.902Z,67.21
2018-10-21T04:40:12.840Z,66.89
2018-10-21T04:42:42.074Z,67.29
2018-10-21T04:45:12.237Z,67.49
2018-10-21T04:47:41.688Z,67.27
2018-10-21T04:50:11.566Z,67.80
2018-10-21T04:52:40.845Z,68.31
2018-10-21T04:55:12.160Z,67.46
2018-10-21T04:57:42.482Z,67.40
2018-10-21T05:00:17.787Z,67.24
2018-10-21T05:02:47.106Z,67.26
2018-10-21T05:05:16.696Z,67.43
2018-10-21T05:07:46.035Z,67.35
2018-10-21T05:10:28.042Z,67.13
2018-10-21T05:12:57.547Z,67.10
2018-10-21T05:15:27.942Z,66.96
2018-10-21T05:17:57.650Z,66.99
2018-10-21T05:20:27.153Z,66.59
2018-10-21T05:22:56.831Z,66.36
2018-10-21T05:25:26.368Z,66.69
2018-10-21T05:27:55.916Z,66.91
2018-10-21T05:30:25.319Z,67.25
2018-10-21T05:32:54.677Z,67.17
2018-10-21T05:35:24.178Z,66.66
2018-10-21T05:37:53.640Z,66.25
2018-10-21T05:40:23.732Z,66.27
2018-10-21T05:42:53.116Z,66.34
2018-10-21T05:45:22.605Z,66.71
2018-10-21T05:47:52.012Z,66.69
2018-10-21T05:50:21.406Z,66.53
2018-10-21T05:52:50.653Z,66.75
2018-10-21T05:55:20.109Z,66.52
2018-10-21T05:57:49.344Z,66.37
2018-10-21T06:00:20.140Z,66.40
2018-10-21T06:02:49.571Z,66.25
2018-10-21T06:05:35.364Z,66.27
2018-10-21T06:08:04.729Z,66.26
2018-10-21T06:10:34.337Z,66.35
2018-10-21T06:13:03.841Z,66.59
2018-10-21T06:15:33.240Z,66.48
2018-10-21T06:18:03.395Z,66.37
2018-10-21T06:20:37.185Z,66.56
2018-10-21T06:23:06.438Z,66.48
2018-10-21T06:25:35.867Z,66.76
2018-10-21T06:28:05.588Z,66.93
2018-10-21T06:30:34.975Z,66.50
2018-10-21T06:33:04.416Z,66.36
2018-10-21T06:35:33.780Z,66.26
2018-10-21T06:38:03.080Z,66.13
2018-10-21T06:40:32.583Z,66.63
2018-10-21T06:43:02.055Z,67.27
2018-10-21T06:45:31.557Z,66.71
2018-10-21T06:48:00.848Z,66.77
2018-10-21T06:50:30.190Z,66.88
2018-10-21T06:52:59.696Z,66.67
2018-10-21T06:55:29.197Z,66.63
2018-10-21T06:57:58.601Z,66.61
2018-10-21T07:00:28.105Z,66.66
2018-10-21T07:02:57.507Z,66.43
2018-10-21T07:05:37.896Z,66.46
2018-10-21T07:08:07.269Z,66.27
2018-10-21T07:10:36.671Z,66.05
2018-10-21T07:13:06.381Z,66.14
2018-10-21T07:15:35.786Z,65.74
2018-10-21T07:18:05.202Z,65.63
2018-10-21T07:20:34.431Z,66.13
2018-10-21T07:23:03.941Z,66.00
2018-10-21T07:25:33.796Z,65.70
2018-10-21T07:28:03.145Z,65.56
2018-10-21T07:30:32.350Z,65.21
2018-10-21T07:33:01.572Z,65.30
2018-10-21T07:35:31.003Z,64.84
2018-10-21T07:38:00.502Z,64.97
2018-10-21T07:40:29.743Z,64.63
2018-10-21T07:42:59.000Z,64.32
2018-10-21T07:45:28.237Z,63.79
2018-10-21T07:47:57.464Z,63.76
2018-10-21T07:50:26.894Z,63.69
2018-10-21T07:52:56.400Z,64.11
2018-10-21T07:55:25.824Z,64.07
2018-10-21T07:57:55.108Z,64.04
2018-10-21T08:00:24.423Z,64.02
2018-10-21T08:02:53.627Z,64.04
2018-10-21T08:05:34.260Z,64.03
2018-10-21T08:08:16.203Z,63.81
2018-10-21T08:10:45.519Z,63.94
2018-10-21T08:13:16.024Z,63.58
2018-10-21T08:15:45.897Z,63.54
2018-10-21T08:18:15.823Z,63.10
2018-10-21T08:20:46.179Z,62.81
2018-10-21T08:23:16.723Z,62.67
2018-10-21T08:25:47.393Z,61.19
2018-10-21T08:28:16.712Z,60.36
2018-10-21T08:30:45.991Z,60.08
2018-10-21T08:33:15.291Z,60.50
2018-10-21T08:35:44.558Z,59.95
2018-10-21T08:38:13.798Z,57.76
2018-10-21T08:40:43.301Z,54.99
2018-10-21T08:43:12.693Z,50.81
2018-10-21T08:45:41.940Z,46.60
2018-10-21T08:48:11.227Z,47.10
2018-10-21T08:50:40.591Z,49.76
2018-10-21T08:53:11.222Z,49.07
2018-10-21T08:55:40.668Z,46.17
2018-10-21T08:58:10.162Z,43.59
2018-10-21T09:00:39.706Z,41.74
2018-10-21T09:03:09.155Z,39.37
2018-10-21T09:05:38.537Z,38.28
2018-10-21T09:08:07.967Z,38.09
2018-10-21T09:10:37.287Z,38.87
2018-10-21T09:13:06.527Z,39.81
2018-10-21T09:15:35.966Z,40.31
2018-10-21T09:18:05.543Z,40.95
2018-10-21T09:20:34.948Z,40.33
2018-10-21T09:23:04.302Z,39.92
2018-10-21T09:25:33.558Z,39.93
2018-10-21T09:28:03.105Z,39.44
2018-10-21T09:30:32.555Z,40.48
2018-10-21T09:33:02.062Z,39.93
2018-10-21T09:35:31.565Z,39.80
2018-10-21T09:38:00.762Z,40.41
2018-10-21T09:40:30.032Z,41.06
2018-10-21T09:42:59.275Z,42.70
2018-10-21T09:45:28.765Z,43.51
2018-10-21T09:47:58.265Z,43.52
2018-10-21T09:50:27.815Z,44.59
2018-10-21T09:52:57.488Z,44.69
2018-10-21T09:55:27.080Z,44.94
2018-10-21T09:57:56.604Z,45.77
2018-10-21T10:00:31.111Z,45.83
2018-10-21T10:03:03.374Z,46.89
2018-10-21T10:05:32.695Z,47.57
2018-10-21T10:08:01.953Z,48.17
2018-10-21T10:10:31.199Z,47.86
2018-10-21T10:13:00.444Z,46.47
2018-10-21T10:15:29.979Z,47.45
2018-10-21T10:17:59.282Z,47.12
2018-10-21T10:20:28.782Z,47.92
2018-10-21T10:22:57.978Z,48.65
2018-10-21T10:25:27.228Z,47.72
2018-10-21T10:27:56.465Z,48.82
2018-10-21T10:30:25.857Z,49.22
2018-10-21T10:35:22.739Z,49.53
2018-10-21T10:37:51.964Z,49.63
2018-10-21T10:40:21.286Z,49.54
2018-10-21T10:42:50.735Z,49.89
2018-10-21T10:45:20.007Z,50.28
2018-10-21T10:47:49.441Z,50.95
2018-10-21T10:50:18.692Z,50.80
2018-10-21T10:52:48.077Z,50.83
2018-10-21T10:55:17.574Z,49.44
2018-10-21T10:57:47.043Z,49.86
2018-10-21T11:00:16.379Z,49.96
2018-10-21T11:02:45.568Z,49.48
2018-10-21T11:05:16.172Z,49.62
2018-10-21T11:07:45.484Z,48.66
2018-10-21T11:10:14.836Z,48.13
2018-10-21T11:12:44.171Z,47.67
2018-10-21T11:15:13.675Z,49.14
2018-10-21T11:17:43.913Z,48.82
2018-10-21T11:20:13.163Z,48.88
2018-10-21T11:22:42.658Z,48.92
2018-10-21T11:25:12.097Z,47.31
2018-10-21T11:27:41.323Z,47.29
2018-10-21T11:30:11.447Z,48.19
2018-10-21T11:32:41.044Z,47.33
2018-10-21T11:35:10.565Z,47.23
2018-10-21T11:37:40.113Z,47.04
2018-10-21T11:40:09.505Z,47.74
2018-10-21T11:42:38.941Z,46.68
2018-10-21T11:45:08.452Z,47.08
2018-10-21T11:47:37.845Z,47.57
2018-10-21T11:50:07.554Z,45.86
2018-10-21T11:52:37.071Z,44.58
2018-10-21T11:55:07.583Z,44.28
2018-10-21T11:57:36.837Z,45.88
2018-10-21T12:00:07.521Z,45.22
2018-10-21T12:02:37.022Z,45.70
2018-10-21T12:05:06.634Z,44.61
2018-10-21T12:07:36.027Z,44.64
2018-10-21T12:10:06.093Z,44.22
2018-10-21T12:12:35.398Z,44.71
2018-10-21T12:15:04.947Z,42.67
2018-10-21T12:17:34.556Z,43.18
2018-10-21T12:20:04.100Z,42.10
2018-10-21T12:22:33.539Z,41.86
2018-10-21T12:25:02.889Z,43.51
2018-10-21T12:27:33.385Z,43.83
2018-10-21T12:30:02.676Z,42.96
2018-10-21T12:32:32.197Z,41.41
2018-10-21T12:35:01.659Z,42.29
2018-10-21T12:37:31.064Z,42.96
2018-10-21T12:40:00.444Z,42.54
2018-10-21T12:42:29.917Z,43.12
2018-10-21T12:44:59.353Z,42.88
2018-10-21T12:47:28.732Z,41.64
2018-10-21T12:49:58.214Z,43.90
2018-10-21T12:52:27.719Z,42.82
2018-10-21T12:54:57.135Z,42.94
2018-10-21T12:57:26.624Z,43.58
2018-10-21T12:59:56.384Z,44.01
2018-10-21T13:02:26.181Z,42.95
2018-10-21T13:04:56.552Z,43.09
2018-10-21T13:07:27.430Z,43.33
2018-10-21T13:09:58.060Z,43.14
2018-10-21T13:12:27.542Z,43.46
2018-10-21T13:14:56.842Z,45.09
2018-10-21T13:17:26.135Z,45.03
2018-10-21T13:19:55.644Z,44.66
2018-10-21T13:22:25.251Z,44.70
2018-10-21T13:24:54.672Z,45.55
2018-10-21T13:27:24.054Z,44.78
2018-10-21T13:29:53.456Z,44.81
2018-10-21T13:32:22.753Z,45.20
2018-10-21T13:34:52.157Z,43.92
2018-10-21T13:37:21.660Z,43.59
2018-10-21T13:39:51.200Z,43.72
2018-10-21T13:42:20.562Z,44.71
2018-10-21T13:44:50.071Z,44.38
2018-10-21T13:47:19.476Z,44.66
2018-10-21T13:49:48.729Z,44.46
2018-10-21T13:52:18.239Z,44.67
2018-10-21T13:54:47.839Z,44.37
2018-10-21T13:57:17.287Z,44.08
2018-10-21T13:59:46.691Z,44.33
2018-10-21T14:02:16.502Z,45.19
2018-10-21T14:04:46.003Z,45.02
2018-10-21T14:07:15.648Z,45.66
2018-10-21T14:09:45.115Z,46.32
2018-10-21T14:12:14.327Z,46.99
2018-10-21T14:14:43.878Z,46.63
2018-10-21T14:17:13.218Z,47.52
2018-10-21T14:19:42.619Z,47.20
2018-10-21T14:22:12.033Z,46.02
2018-10-21T14:24:42.065Z,44.48
2018-10-21T14:27:11.235Z,43.59
2018-10-21T14:29:40.778Z,43.30
2018-10-21T14:32:10.144Z,43.94
2018-10-21T14:34:39.626Z,42.61
2018-10-21T14:37:09.045Z,43.49
2018-10-21T14:39:38.549Z,43.42
2018-10-21T14:42:07.977Z,42.28
2018-10-21T14:44:37.567Z,42.56
2018-10-21T14:47:07.371Z,42.29
2018-10-21T14:49:36.899Z,42.30
2018-10-21T14:52:07.096Z,42.27
2018-10-21T14:54:36.705Z,42.10
2018-10-21T14:57:06.132Z,42.89
2018-10-21T14:59:35.611Z,41.96
2018-10-21T15:02:05.280Z,41.76
2018-10-21T15:04:34.721Z,42.08
2018-10-21T15:07:04.121Z,41.37
2018-10-21T15:09:33.621Z,41.59
2018-10-21T15:12:03.084Z,41.81
2018-10-21T15:14:32.532Z,43.05
2018-10-21T15:17:01.933Z,43.99
2018-10-21T15:19:31.335Z,44.54
2018-10-21T15:22:00.743Z,44.74
2018-10-21T15:24:30.076Z,44.02
2018-10-21T15:26:59.404Z,44.50
2018-10-21T15:29:28.840Z,44.99
2018-10-21T15:31:58.272Z,45.53
2018-10-21T15:34:27.755Z,46.30
2018-10-21T15:36:56.993Z,46.81
2018-10-21T15:39:26.448Z,47.25
2018-10-21T15:41:55.913Z,47.92
2018-10-21T15:44:25.459Z,48.36
2018-10-21T15:46:55.093Z,48.78
2018-10-21T15:49:24.977Z,49.23
2018-10-21T15:51:54.776Z,49.83
2018-10-21T15:54:24.499Z,50.23
2018-10-21T15:56:53.924Z,50.84
2018-10-21T15:59:23.327Z,51.03
2018-10-21T16:01:53.010Z,51.44
2018-10-21T16:04:23.231Z,51.41
2018-10-21T16:06:52.559Z,52.21
2018-10-21T16:09:21.830Z,52.05
2018-10-21T16:11:51.076Z,52.86
2018-10-21T16:14:20.541Z,53.29
2018-10-21T16:16:50.241Z,53.32
2018-10-21T16:19:19.541Z,53.84
2018-10-21T16:21:49.108Z,53.87
2018-10-21T16:24:18.855Z,54.26
2018-10-21T16:26:48.359Z,54.07
2018-10-21T16:29:21.039Z,54.54
2018-10-21T16:31:50.525Z,54.77
2018-10-21T16:34:19.993Z,54.93
2018-10-21T16:36:49.349Z,55.15
2018-10-21T16:39:18.893Z,55.06
2018-10-21T16:41:48.462Z,54.95
2018-10-21T16:44:17.860Z,55.11
2018-10-21T16:46:47.570Z,55.73
2018-10-21T16:49:17.193Z,56.15
2018-10-21T16:51:46.929Z,56.21
2018-10-21T16:54:16.340Z,55.99
2018-10-21T16:56:45.559Z,56.15
2018-10-21T16:59:15.018Z,55.86
2018-10-21T17:01:44.454Z,55.40
2018-10-21T17:04:14.126Z,55.69
2018-10-21T17:06:43.868Z,56.02
2018-10-21T17:09:14.795Z,56.60
2018-10-21T17:11:45.031Z,56.95
2018-10-21T17:14:14.475Z,57.01
2018-10-21T17:16:43.887Z,57.29
2018-10-21T17:19:13.436Z,57.78
2018-10-21T17:21:42.777Z,57.62
2018-10-21T17:24:12.440Z,57.56
2018-10-21T17:26:41.992Z,58.52
2018-10-21T17:29:11.699Z,59.46
2018-10-21T17:31:41.101Z,59.55
2018-10-21T17:34:10.720Z,59.42
2018-10-21T17:36:40.119Z,60.17
2018-10-21T17:39:13.678Z,60.25
2018-10-21T17:41:43.237Z,59.98
2018-10-21T17:44:13.131Z,59.68
2018-10-21T17:46:43.004Z,59.43
2018-10-21T17:49:12.448Z,59.56
2018-10-21T17:51:42.870Z,59.40
2018-10-21T17:54:13.512Z,59.20
2018-10-21T17:56:48.492Z,59.19
2018-10-21T17:59:17.936Z,58.96
2018-10-21T18:01:47.769Z,59.45
2018-10-21T18:04:17.954Z,59.82
2018-10-21T18:06:47.664Z,59.43
2018-10-21T18:09:17.181Z,59.56
2018-10-21T18:11:46.703Z,59.55
2018-10-21T18:14:16.504Z,59.64
2018-10-21T18:16:45.982Z,60.03
2018-10-21T18:19:15.507Z,61.22
2018-10-21T18:21:45.133Z,60.53
2018-10-21T18:24:14.572Z,60.90
2018-10-21T18:26:43.981Z,60.55
2018-10-21T18:29:14.035Z,60.43
2018-10-21T18:31:43.439Z,60.85
2018-10-21T18:34:12.985Z,60.69
2018-10-21T18:36:42.445Z,60.70
2018-10-21T18:39:12.279Z,60.74
2018-10-21T18:41:41.765Z,60.78
2018-10-21T18:44:11.263Z,61.06
2018-10-21T18:46:40.768Z,60.98
2018-10-21T18:49:10.524Z,61.38
2018-10-21T18:51:40.084Z,61.43
2018-10-21T18:54:09.489Z,61.72
2018-10-21T18:56:39.095Z,61.76
2018-10-21T18:59:08.526Z,61.73
2018-10-21T19:01:38.007Z,62.31
2018-10-21T19:04:07.528Z,62.50
2018-10-21T19:06:36.894Z,62.59
2018-10-21T19:09:10.226Z,62.50
2018-10-21T19:11:40.328Z,62.55
2018-10-21T19:14:10.639Z,62.51
2018-10-21T19:16:40.679Z,62.35
2018-10-21T19:19:10.734Z,62.56
2018-10-21T19:21:40.346Z,62.27
2018-10-21T19:24:10.448Z,62.31
2018-10-21T19:26:40.488Z,62.56
2018-10-21T19:29:09.892Z,62.65
2018-10-21T19:31:39.244Z,63.10
2018-10-21T19:34:08.920Z,63.09
2018-10-21T19:36:38.535Z,62.82
2018-10-21T19:39:10.043Z,63.20
2018-10-21T19:41:39.691Z,62.97
2018-10-21T19:44:10.541Z,62.91
2018-10-21T19:46:40.428Z,63.18
2018-10-21T19:49:10.244Z,63.16
2018-10-21T19:51:39.965Z,63.31
2018-10-21T19:54:09.278Z,64.44
2018-10-21T19:56:39.109Z,65.44
2018-10-21T19:59:08.483Z,64.92
2018-10-21T20:01:37.981Z,65.06
2018-10-21T20:04:07.410Z,65.34
2018-10-21T20:06:37.976Z,64.85
2018-10-21T20:09:09.732Z,64.98
2018-10-21T20:11:40.277Z,64.84
2018-10-21T20:14:09.798Z,64.92
2018-10-21T20:16:39.202Z,64.75
2018-10-21T20:19:08.719Z,64.97
2018-10-21T20:21:38.108Z,64.32
2018-10-21T20:24:07.613Z,64.90
2018-10-21T20:26:37.132Z,64.96
2018-10-21T20:29:06.962Z,64.79
2018-10-21T20:31:36.560Z,64.67
2018-10-21T20:34:06.283Z,64.23
2018-10-21T20:36:35.812Z,64.22
2018-10-21T20:39:07.800Z,63.99
2018-10-21T20:41:37.743Z,64.05
2018-10-21T20:44:07.190Z,64.36
2018-10-21T20:46:37.041Z,64.22
2018-10-21T20:49:07.569Z,64.16
2018-10-21T20:51:37.286Z,64.32
2018-10-21T20:54:06.754Z,64.16
2018-10-21T20:56:36.183Z,64.15
2018-10-21T20:59:05.821Z,64.59
2018-10-21T21:01:35.174Z,64.63
2018-10-21T21:04:04.468Z,64.60
2018-10-21T21:06:33.996Z,64.41
2018-10-21T21:09:03.501Z,64.37
2018-10-21T21:11:33.003Z,63.76
2018-10-21T21:14:02.627Z,63.69
2018-10-21T21:16:32.321Z,63.75
2018-10-21T21:19:01.749Z,64.17
2018-10-21T21:21:31.131Z,64.13
2018-10-21T21:24:00.462Z,64.74
2018-10-21T21:26:30.028Z,64.50
2018-10-21T21:28:59.968Z,63.83
2018-10-21T21:31:29.553Z,63.51
2018-10-21T21:33:59.048Z,63.66
2018-10-21T21:36:28.660Z,64.21
2018-10-21T21:38:58.268Z,64.24
2018-10-21T21:41:27.980Z,64.52
2018-10-21T21:43:58.457Z,64.36
2018-10-21T21:46:28.786Z,64.43
2018-10-21T21:48:58.382Z,64.10
2018-10-21T21:51:28.145Z,64.19
2018-10-21T21:53:57.850Z,64.41
2018-10-21T21:56:27.343Z,64.71
2018-10-21T21:58:56.848Z,64.84
2018-10-21T22:01:26.658Z,64.96
2018-10-21T22:03:56.187Z,64.46
2018-10-21T22:06:25.773Z,64.76
2018-10-21T22:08:55.383Z,64.93
2018-10-21T22:11:24.784Z,64.98
2018-10-21T22:13:55.216Z,64.99
2018-10-21T22:16:24.588Z,65.12
2018-10-21T22:18:53.895Z,64.95
2018-10-21T22:21:23.351Z,64.64
2018-10-21T22:23:52.675Z,64.34
2018-10-21T22:26:22.188Z,64.57
2018-10-21T22:28:51.632Z,64.52
2018-10-21T22:31:21.035Z,65.15
2018-10-21T22:33:50.332Z,65.12
2018-10-21T22:36:19.598Z,65.15
2018-10-21T22:38:49.032Z,65.32
2018-10-21T22:41:18.646Z,65.53
2018-10-21T22:43:47.945Z,65.17
2018-10-21T22:46:17.480Z,65.26
2018-10-21T22:48:46.728Z,64.81
2018-10-21T22:51:16.259Z,65.38
2018-10-21T22:53:45.581Z,64.97
2018-10-21T22:56:14.875Z,64.77
2018-10-21T22:58:44.442Z,64.87
2018-10-21T23:01:13.707Z,65.16
2018-10-21T23:03:43.168Z,65.10
2018-10-21T23:06:12.636Z,64.92
2018-10-21T23:08:42.071Z,64.89
2018-10-21T23:11:11.570Z,64.57
2018-10-21T23:13:40.967Z,65.10
2018-10-21T23:16:10.447Z,65.79
2018-10-21T23:18:39.817Z,66.06
2018-10-21T23:21:09.287Z,66.54
2018-10-21T23:23:38.484Z,66.53
2018-10-21T23:26:07.748Z,66.04
2018-10-21T23:28:37.072Z,65.87
2018-10-21T23:31:06.576Z,65.63
2018-10-21T23:33:35.773Z,65.49
2018-10-21T23:36:05.119Z,65.25
2018-10-21T23:38:34.577Z,64.84
2018-10-21T23:41:03.924Z,65.23
2018-10-21T23:43:33.379Z,65.34
2018-10-21T23:46:02.710Z,65.61
2018-10-21T23:48:32.180Z,65.73
2018-10-21T23:51:01.463Z,65.80
2018-10-21T23:53:30.634Z,65.94
2018-10-21T23:56:00.078Z,65.79
2018-10-21T23:58:29.406Z,65.89
